International Virtual Aviation Organisation

Russian Federation and Kazakhstan MCD

 
UACP 240900Z 19006MPS 9999 OVC011 M05/M07 Q1035 R23/3/0157 NOSIG RMK QFE763/1018
QNH:(hPa/inHg/mmHg)1035 / 30.56 / 776
QFE:(hPa/inHg/mmHg)1018 / 30.06 / 764
Temperature-5
Dew Point-7
Visibility> 10000
Weather
Cloud CoverOVC (1100);
Transition Height10000 m./33300 ft.
Transition LevelFL340
SQUAWK